EZY58UA LFPG-EGGW
Flight info
| Callsign | EZY58UA |
|---|---|
| Flight time | 0h 56m |
| Altitude | 24000 |
| Route | OPALE6G/09R OPALE DCT KESAX DCT KUNAV Y8 BANVA M733 UNDUG |
| Aircraft | A319/M-SDE3FGHIRWY/LB1 |
Departure
| Time | 2026-05-08 20:24 |
|---|---|
| Airport | Charles de Gaulle International Airport (LFPG) |
Arrival
| Time | 2026-05-08 21:20 |
|---|---|
| Airport | London Luton Airport (EGGW) |
| Time | Latitude | Longitude | Altitude | Speed | Heading |
|---|---|---|---|---|---|
| 2026-05-08 19:56 | 49.01718 | 2.54179 | 366 ft | 0 kts | 228° |
| 2026-05-08 20:12 | 49.01721 | 2.54183 | 366 ft | 1 kts | 217° |
| 2026-05-08 20:12 | 49.01732 | 2.54192 | 366 ft | 2 kts | 212° |
| 2026-05-08 20:12 | 49.01744 | 2.54205 | 366 ft | 2 kts | 213° |
| 2026-05-08 20:12 | 49.01756 | 2.54217 | 366 ft | 2 kts | 213° |
| 2026-05-08 20:13 | 49.01767 | 2.54229 | 366 ft | 2 kts | 213° |
| 2026-05-08 20:13 | 49.01779 | 2.54242 | 366 ft | 2 kts | 213° |
| 2026-05-08 20:13 | 49.01790 | 2.54252 | 366 ft | 1 kts | 213° |
| 2026-05-08 20:13 | 49.01800 | 2.54263 | 366 ft | 1 kts | 213° |
| 2026-05-08 20:14 | 49.01805 | 2.54267 | 366 ft | 0 kts | 218° |
| 2026-05-08 20:14 | 49.01807 | 2.54271 | 366 ft | 0 kts | 274° |
| 2026-05-08 20:14 | 49.01805 | 2.54281 | 366 ft | 0 kts | 281° |
| 2026-05-08 20:17 | 49.01805 | 2.54280 | 366 ft | 0 kts | 281° |
| 2026-05-08 20:17 | 49.01808 | 2.54256 | 366 ft | 4 kts | 277° |
| 2026-05-08 20:17 | 49.01810 | 2.54200 | 366 ft | 6 kts | 268° |
| 2026-05-08 20:17 | 49.01807 | 2.54113 | 365 ft | 10 kts | 266° |
| 2026-05-08 20:18 | 49.01799 | 2.53988 | 363 ft | 10 kts | 265° |
| 2026-05-08 20:18 | 49.01793 | 2.53872 | 363 ft | 11 kts | 264° |
| 2026-05-08 20:18 | 49.01786 | 2.53736 | 362 ft | 13 kts | 265° |
| 2026-05-08 20:18 | 49.01780 | 2.53610 | 362 ft | 9 kts | 264° |
| 2026-05-08 20:19 | 49.01773 | 2.53502 | 361 ft | 11 kts | 264° |
| 2026-05-08 20:19 | 49.01767 | 2.53384 | 363 ft | 10 kts | 266° |
| 2026-05-08 20:19 | 49.01761 | 2.53271 | 364 ft | 11 kts | 264° |
| 2026-05-08 20:19 | 49.01754 | 2.53146 | 365 ft | 12 kts | 266° |
| 2026-05-08 20:20 | 49.01746 | 2.53005 | 364 ft | 14 kts | 264° |
| 2026-05-08 20:20 | 49.01739 | 2.52862 | 367 ft | 13 kts | 265° |
| 2026-05-08 20:20 | 49.01731 | 2.52719 | 367 ft | 14 kts | 265° |
| 2026-05-08 20:20 | 49.01723 | 2.52570 | 369 ft | 13 kts | 265° |
| 2026-05-08 20:21 | 49.01716 | 2.52425 | 370 ft | 14 kts | 265° |
| 2026-05-08 20:21 | 49.01707 | 2.52272 | 369 ft | 15 kts | 264° |
| 2026-05-08 20:21 | 49.01725 | 2.52156 | 369 ft | 10 kts | 322° |
| 2026-05-08 20:21 | 49.01791 | 2.52136 | 369 ft | 10 kts | 354° |
| 2026-05-08 20:22 | 49.01846 | 2.52128 | 369 ft | 7 kts | 355° |
| 2026-05-08 20:22 | 49.01895 | 2.52122 | 370 ft | 7 kts | 355° |
| 2026-05-08 20:22 | 49.01937 | 2.52117 | 371 ft | 0 kts | 354° |
| 2026-05-08 20:23 | 49.01948 | 2.52116 | 371 ft | 5 kts | 354° |
| 2026-05-08 20:23 | 49.02011 | 2.52108 | 372 ft | 11 kts | 355° |
| 2026-05-08 20:23 | 49.02092 | 2.52156 | 372 ft | 13 kts | 56° |
| 2026-05-08 20:23 | 49.02114 | 2.52298 | 373 ft | 14 kts | 82° |
| 2026-05-08 20:24 | 49.02143 | 2.52768 | 375 ft | 85 kts | 84° |
| 2026-05-08 20:24 | 49.02211 | 2.54047 | 418 ft | 149 kts | 84° |
| 2026-05-08 20:24 | 49.02290 | 2.55644 | 1061 ft | 155 kts | 84° |
| 2026-05-08 20:24 | 49.02375 | 2.57239 | 1937 ft | 154 kts | 83° |
| 2026-05-08 20:25 | 49.02469 | 2.58855 | 2691 ft | 161 kts | 84° |
| 2026-05-08 20:25 | 49.02568 | 2.60616 | 3280 ft | 177 kts | 84° |
| 2026-05-08 20:25 | 49.02668 | 2.62553 | 3843 ft | 196 kts | 84° |
| 2026-05-08 20:25 | 49.02784 | 2.64733 | 4421 ft | 218 kts | 84° |
| 2026-05-08 20:26 | 49.02910 | 2.67146 | 5092 ft | 236 kts | 85° |
| 2026-05-08 20:26 | 49.03044 | 2.69692 | 5748 ft | 255 kts | 85° |
| 2026-05-08 20:26 | 49.03228 | 2.72465 | 6447 ft | 271 kts | 78° |
| 2026-05-08 20:26 | 49.04050 | 2.75012 | 7330 ft | 278 kts | 48° |
| 2026-05-08 20:27 | 49.05613 | 2.76686 | 8319 ft | 281 kts | 20° |
| 2026-05-08 20:27 | 49.07548 | 2.77075 | 9170 ft | 287 kts | 352° |
| 2026-05-08 20:27 | 49.09396 | 2.76048 | 9755 ft | 290 kts | 327° |
| 2026-05-08 20:27 | 49.11106 | 2.74353 | 10032 ft | 292 kts | 326° |
| 2026-05-08 20:28 | 49.12808 | 2.72670 | 10045 ft | 291 kts | 326° |
| 2026-05-08 20:28 | 49.14504 | 2.71028 | 10077 ft | 290 kts | 327° |
| 2026-05-08 20:28 | 49.16212 | 2.69395 | 10071 ft | 289 kts | 327° |
| 2026-05-08 20:28 | 49.17932 | 2.67758 | 10079 ft | 290 kts | 327° |
| 2026-05-08 20:29 | 49.19624 | 2.66151 | 10065 ft | 290 kts | 327° |
| 2026-05-08 20:29 | 49.21351 | 2.64515 | 10070 ft | 291 kts | 328° |
| 2026-05-08 20:29 | 49.23042 | 2.62835 | 10092 ft | 292 kts | 324° |
| 2026-05-08 20:29 | 49.24719 | 2.61024 | 10303 ft | 301 kts | 324° |
| 2026-05-08 20:30 | 49.26468 | 2.59108 | 10775 ft | 321 kts | 324° |
| 2026-05-08 20:30 | 49.28337 | 2.57061 | 11254 ft | 340 kts | 324° |
| 2026-05-08 20:30 | 49.30293 | 2.54916 | 11682 ft | 358 kts | 324° |
| 2026-05-08 20:30 | 49.32346 | 2.52670 | 12322 ft | 368 kts | 324° |
| 2026-05-08 20:31 | 49.34437 | 2.50381 | 13159 ft | 371 kts | 324° |
| 2026-05-08 20:31 | 49.36517 | 2.48097 | 13983 ft | 373 kts | 324° |
| 2026-05-08 20:31 | 49.38647 | 2.45756 | 14774 ft | 377 kts | 324° |
| 2026-05-08 20:31 | 49.40758 | 2.43429 | 15469 ft | 381 kts | 324° |
| 2026-05-08 20:32 | 49.42910 | 2.41058 | 16152 ft | 386 kts | 323° |
| 2026-05-08 20:32 | 49.45121 | 2.38619 | 16810 ft | 391 kts | 323° |
| 2026-05-08 20:32 | 49.47336 | 2.36173 | 17456 ft | 395 kts | 323° |
| 2026-05-08 20:32 | 49.49551 | 2.33722 | 18034 ft | 401 kts | 323° |
| 2026-05-08 20:33 | 49.51841 | 2.31186 | 18606 ft | 405 kts | 323° |
| 2026-05-08 20:33 | 49.54129 | 2.28650 | 19219 ft | 408 kts | 323° |
| 2026-05-08 20:33 | 49.56416 | 2.26114 | 19856 ft | 409 kts | 323° |
| 2026-05-08 20:33 | 49.58709 | 2.23563 | 20464 ft | 411 kts | 324° |
| 2026-05-08 20:34 | 49.61019 | 2.20994 | 21059 ft | 412 kts | 324° |
| 2026-05-08 20:34 | 49.63346 | 2.18406 | 21663 ft | 413 kts | 324° |
| 2026-05-08 20:34 | 49.67982 | 2.13237 | 22754 ft | 416 kts | 324° |
| 2026-05-08 20:35 | 49.70319 | 2.10627 | 23258 ft | 418 kts | 324° |
| 2026-05-08 20:35 | 49.72686 | 2.07980 | 23754 ft | 420 kts | 324° |
| 2026-05-08 20:35 | 49.75055 | 2.05329 | 24047 ft | 421 kts | 324° |
| 2026-05-08 20:35 | 49.77426 | 2.02670 | 24072 ft | 421 kts | 324° |
| 2026-05-08 20:36 | 49.79776 | 2.00031 | 24076 ft | 421 kts | 324° |
| 2026-05-08 20:36 | 49.82119 | 1.97393 | 24078 ft | 421 kts | 324° |
| 2026-05-08 20:36 | 49.84501 | 1.94708 | 24078 ft | 420 kts | 324° |
| 2026-05-08 20:36 | 49.86848 | 1.92059 | 24079 ft | 420 kts | 324° |
| 2026-05-08 20:37 | 49.89212 | 1.89390 | 24077 ft | 420 kts | 324° |
| 2026-05-08 20:37 | 49.91531 | 1.86639 | 24079 ft | 420 kts | 322° |
| 2026-05-08 20:37 | 49.93798 | 1.83863 | 24078 ft | 420 kts | 322° |
| 2026-05-08 20:37 | 49.96082 | 1.81044 | 24078 ft | 420 kts | 322° |
| 2026-05-08 20:38 | 49.98355 | 1.78233 | 24076 ft | 420 kts | 322° |
| 2026-05-08 20:38 | 50.00631 | 1.75417 | 24077 ft | 420 kts | 322° |
| 2026-05-08 20:38 | 50.02907 | 1.72600 | 24077 ft | 421 kts | 322° |
| 2026-05-08 20:38 | 50.05202 | 1.69759 | 24081 ft | 421 kts | 322° |
| 2026-05-08 20:39 | 50.07477 | 1.66884 | 24079 ft | 422 kts | 320° |
| 2026-05-08 20:39 | 50.09684 | 1.63937 | 24080 ft | 422 kts | 320° |
| 2026-05-08 20:39 | 50.11897 | 1.60940 | 24079 ft | 422 kts | 319° |
| 2026-05-08 20:39 | 50.14115 | 1.57922 | 24081 ft | 422 kts | 319° |
| 2026-05-08 20:40 | 50.16308 | 1.54937 | 24082 ft | 421 kts | 319° |
| 2026-05-08 20:40 | 50.18528 | 1.51914 | 24081 ft | 421 kts | 319° |
| 2026-05-08 20:40 | 50.20712 | 1.48935 | 24082 ft | 422 kts | 319° |
| 2026-05-08 20:40 | 50.22903 | 1.45946 | 24085 ft | 422 kts | 319° |
| 2026-05-08 20:41 | 50.25133 | 1.42894 | 24083 ft | 423 kts | 319° |
| 2026-05-08 20:41 | 50.27311 | 1.39907 | 24082 ft | 423 kts | 319° |
| 2026-05-08 20:41 | 50.29534 | 1.36858 | 24085 ft | 423 kts | 319° |
| 2026-05-08 20:41 | 50.31738 | 1.33835 | 24088 ft | 423 kts | 318° |
| 2026-05-08 20:42 | 50.33940 | 1.30811 | 24085 ft | 423 kts | 318° |
| 2026-05-08 20:42 | 50.36160 | 1.27760 | 24089 ft | 423 kts | 318° |
| 2026-05-08 20:42 | 50.38353 | 1.24741 | 24087 ft | 424 kts | 318° |
| 2026-05-08 20:42 | 50.40556 | 1.21703 | 24087 ft | 424 kts | 318° |
| 2026-05-08 20:43 | 50.42775 | 1.18642 | 24089 ft | 424 kts | 318° |
| 2026-05-08 20:43 | 50.44962 | 1.15619 | 24086 ft | 423 kts | 318° |
| 2026-05-08 20:43 | 50.47155 | 1.12581 | 24087 ft | 424 kts | 317° |
| 2026-05-08 20:43 | 50.49236 | 1.09235 | 24087 ft | 424 kts | 311° |
| 2026-05-08 20:44 | 50.51142 | 1.05722 | 24090 ft | 424 kts | 309° |
| 2026-05-08 20:44 | 50.53022 | 1.02176 | 24087 ft | 424 kts | 309° |
| 2026-05-08 20:44 | 50.54908 | 0.98638 | 24090 ft | 425 kts | 310° |
| 2026-05-08 20:44 | 50.56808 | 0.95107 | 24087 ft | 425 kts | 310° |
| 2026-05-08 20:45 | 50.58713 | 0.91585 | 24087 ft | 425 kts | 310° |
| 2026-05-08 20:45 | 50.60634 | 0.88049 | 24088 ft | 425 kts | 310° |
| 2026-05-08 20:45 | 50.62559 | 0.84509 | 24088 ft | 425 kts | 310° |
| 2026-05-08 20:45 | 50.64461 | 0.81012 | 24090 ft | 426 kts | 310° |
| 2026-05-08 20:46 | 50.66390 | 0.77464 | 24094 ft | 426 kts | 310° |
| 2026-05-08 20:46 | 50.68298 | 0.73952 | 24098 ft | 426 kts | 310° |
| 2026-05-08 20:46 | 50.70213 | 0.70423 | 24094 ft | 426 kts | 310° |
| 2026-05-08 20:46 | 50.72134 | 0.66878 | 24097 ft | 425 kts | 310° |
| 2026-05-08 20:47 | 50.74058 | 0.63322 | 24098 ft | 426 kts | 310° |
| 2026-05-08 20:47 | 50.75972 | 0.59781 | 24097 ft | 425 kts | 310° |
| 2026-05-08 20:47 | 50.77895 | 0.56220 | 24095 ft | 426 kts | 310° |
| 2026-05-08 20:47 | 50.79807 | 0.52674 | 24099 ft | 426 kts | 310° |
| 2026-05-08 20:48 | 50.81703 | 0.49154 | 24100 ft | 426 kts | 310° |
| 2026-05-08 20:48 | 50.83626 | 0.45577 | 24098 ft | 427 kts | 310° |
| 2026-05-08 20:48 | 50.85549 | 0.41995 | 24101 ft | 427 kts | 310° |
| 2026-05-08 20:48 | 50.87471 | 0.38409 | 24095 ft | 427 kts | 310° |
| 2026-05-08 20:49 | 50.89376 | 0.34850 | 24101 ft | 427 kts | 309° |
| 2026-05-08 20:49 | 50.91305 | 0.31243 | 24096 ft | 426 kts | 309° |
| 2026-05-08 20:49 | 50.93192 | 0.27708 | 24104 ft | 426 kts | 309° |
| 2026-05-08 20:49 | 50.95096 | 0.24135 | 24096 ft | 425 kts | 309° |
| 2026-05-08 20:50 | 50.97004 | 0.20551 | 23823 ft | 418 kts | 309° |
| 2026-05-08 20:50 | 50.98854 | 0.17070 | 23110 ft | 416 kts | 309° |
| 2026-05-08 20:50 | 51.00776 | 0.13669 | 22327 ft | 416 kts | 313° |
| 2026-05-08 20:50 | 51.02871 | 0.10586 | 21601 ft | 415 kts | 319° |
| 2026-05-08 20:51 | 51.05154 | 0.07800 | 20871 ft | 413 kts | 323° |
| 2026-05-08 20:51 | 51.07463 | 0.05217 | 20351 ft | 411 kts | 324° |
| 2026-05-08 20:51 | 51.09829 | 0.02613 | 20117 ft | 412 kts | 324° |
| 2026-05-08 20:51 | 51.12195 | 0.00010 | 20110 ft | 413 kts | 324° |
| 2026-05-08 20:52 | 51.14545 | -0.02583 | 20112 ft | 413 kts | 324° |
| 2026-05-08 20:52 | 51.17006 | -0.04893 | 19883 ft | 414 kts | 338° |
| 2026-05-08 20:52 | 51.19832 | -0.05755 | 19638 ft | 415 kts | 357° |
| 2026-05-08 20:52 | 51.22676 | -0.05688 | 19400 ft | 414 kts | 2° |
| 2026-05-08 20:53 | 51.25540 | -0.05484 | 19156 ft | 413 kts | 1° |
| 2026-05-08 20:53 | 51.28424 | -0.05344 | 18904 ft | 412 kts | 1° |
| 2026-05-08 20:53 | 51.31265 | -0.05259 | 18660 ft | 411 kts | 0° |
| 2026-05-08 20:53 | 51.34123 | -0.05211 | 18407 ft | 410 kts | 360° |
| 2026-05-08 20:54 | 51.36972 | -0.05191 | 18173 ft | 409 kts | 359° |
| 2026-05-08 20:54 | 51.39786 | -0.05187 | 18115 ft | 408 kts | 359° |
| 2026-05-08 20:54 | 51.42648 | -0.05192 | 18112 ft | 408 kts | 359° |
| 2026-05-08 20:54 | 51.45462 | -0.05202 | 18113 ft | 409 kts | 359° |
| 2026-05-08 20:55 | 51.48291 | -0.05215 | 18112 ft | 408 kts | 359° |
| 2026-05-08 20:55 | 51.51168 | -0.05230 | 18115 ft | 408 kts | 359° |
| 2026-05-08 20:55 | 51.53968 | -0.05245 | 18060 ft | 409 kts | 359° |
| 2026-05-08 20:55 | 51.56810 | -0.05260 | 17812 ft | 406 kts | 359° |
| 2026-05-08 20:56 | 51.59647 | -0.05274 | 17556 ft | 404 kts | 359° |
| 2026-05-08 20:56 | 51.62427 | -0.05289 | 17314 ft | 402 kts | 359° |
| 2026-05-08 20:56 | 51.65228 | -0.05303 | 17073 ft | 400 kts | 359° |
| 2026-05-08 20:56 | 51.68016 | -0.05318 | 16863 ft | 398 kts | 359° |
| 2026-05-08 20:57 | 51.70756 | -0.05332 | 16678 ft | 397 kts | 359° |
| 2026-05-08 20:57 | 51.73518 | -0.05348 | 16449 ft | 395 kts | 359° |
| 2026-05-08 20:57 | 51.76238 | -0.05365 | 16194 ft | 393 kts | 359° |
| 2026-05-08 20:57 | 51.78967 | -0.05382 | 15963 ft | 391 kts | 359° |
| 2026-05-08 20:58 | 51.81667 | -0.05399 | 15705 ft | 389 kts | 359° |
| 2026-05-08 20:58 | 51.84381 | -0.05415 | 15401 ft | 387 kts | 359° |
| 2026-05-08 20:58 | 51.87035 | -0.05430 | 15146 ft | 385 kts | 359° |
| 2026-05-08 20:58 | 51.89724 | -0.05445 | 14920 ft | 383 kts | 359° |
| 2026-05-08 20:59 | 51.92376 | -0.05459 | 14658 ft | 381 kts | 359° |
| 2026-05-08 20:59 | 51.95015 | -0.05473 | 14427 ft | 379 kts | 359° |
| 2026-05-08 20:59 | 51.97622 | -0.05488 | 14198 ft | 377 kts | 359° |
| 2026-05-08 20:59 | 52.00222 | -0.05503 | 13960 ft | 375 kts | 359° |
| 2026-05-08 21:00 | 52.02809 | -0.05518 | 13677 ft | 368 kts | 359° |
| 2026-05-08 21:00 | 52.05327 | -0.05532 | 13316 ft | 359 kts | 359° |
| 2026-05-08 21:00 | 52.07798 | -0.05546 | 12960 ft | 351 kts | 359° |
| 2026-05-08 21:00 | 52.10197 | -0.05556 | 12610 ft | 342 kts | 359° |
| 2026-05-08 21:01 | 52.12557 | -0.05569 | 12266 ft | 335 kts | 359° |
| 2026-05-08 21:01 | 52.14834 | -0.05582 | 11927 ft | 328 kts | 359° |
| 2026-05-08 21:01 | 52.17108 | -0.05595 | 11588 ft | 321 kts | 359° |
| 2026-05-08 21:01 | 52.19297 | -0.05609 | 11259 ft | 314 kts | 360° |
| 2026-05-08 21:02 | 52.21453 | -0.05622 | 10927 ft | 308 kts | 360° |
| 2026-05-08 21:02 | 52.23559 | -0.05634 | 10606 ft | 302 kts | 359° |
| 2026-05-08 21:02 | 52.25622 | -0.06116 | 10267 ft | 297 kts | 337° |
| 2026-05-08 21:02 | 52.27201 | -0.08106 | 9980 ft | 290 kts | 304° |
| 2026-05-08 21:03 | 52.27931 | -0.11083 | 9852 ft | 278 kts | 283° |
| 2026-05-08 21:03 | 52.28369 | -0.14100 | 9720 ft | 268 kts | 284° |
| 2026-05-08 21:03 | 52.28817 | -0.16986 | 9587 ft | 258 kts | 284° |
| 2026-05-08 21:03 | 52.29269 | -0.19762 | 9460 ft | 253 kts | 285° |
| 2026-05-08 21:04 | 52.29734 | -0.22532 | 9335 ft | 252 kts | 285° |
| 2026-05-08 21:04 | 52.30201 | -0.25276 | 9208 ft | 252 kts | 285° |
| 2026-05-08 21:04 | 52.30674 | -0.28030 | 9081 ft | 252 kts | 285° |
| 2026-05-08 21:04 | 52.31142 | -0.30757 | 8948 ft | 251 kts | 285° |
| 2026-05-08 21:05 | 52.31614 | -0.33502 | 8824 ft | 251 kts | 285° |
| 2026-05-08 21:05 | 52.32085 | -0.36252 | 8695 ft | 250 kts | 286° |
| 2026-05-08 21:05 | 52.32551 | -0.38970 | 8566 ft | 250 kts | 286° |
| 2026-05-08 21:05 | 52.33040 | -0.41709 | 8434 ft | 249 kts | 291° |
| 2026-05-08 21:06 | 52.33938 | -0.44093 | 8299 ft | 249 kts | 315° |
| 2026-05-08 21:06 | 52.35324 | -0.45727 | 8172 ft | 248 kts | 336° |
| 2026-05-08 21:06 | 52.36974 | -0.46421 | 8131 ft | 247 kts | 358° |
| 2026-05-08 21:06 | 52.38657 | -0.46110 | 8128 ft | 246 kts | 19° |
| 2026-05-08 21:07 | 52.40167 | -0.44835 | 8127 ft | 245 kts | 40° |
| 2026-05-08 21:07 | 52.41293 | -0.42763 | 8129 ft | 244 kts | 60° |
| 2026-05-08 21:07 | 52.41884 | -0.40219 | 8125 ft | 242 kts | 81° |
| 2026-05-08 21:07 | 52.41886 | -0.37447 | 8118 ft | 242 kts | 101° |
| 2026-05-08 21:08 | 52.41303 | -0.34908 | 8127 ft | 243 kts | 121° |
| 2026-05-08 21:08 | 52.40193 | -0.32814 | 8125 ft | 244 kts | 140° |
| 2026-05-08 21:08 | 52.38791 | -0.31248 | 8131 ft | 245 kts | 148° |
| 2026-05-08 21:08 | 52.37328 | -0.29857 | 8129 ft | 245 kts | 149° |
| 2026-05-08 21:09 | 52.35852 | -0.28465 | 8128 ft | 245 kts | 149° |
| 2026-05-08 21:09 | 52.34391 | -0.27059 | 8127 ft | 245 kts | 148° |
| 2026-05-08 21:09 | 52.32941 | -0.25643 | 8125 ft | 245 kts | 148° |
| 2026-05-08 21:09 | 52.31481 | -0.24208 | 8123 ft | 245 kts | 149° |
| 2026-05-08 21:10 | 52.29940 | -0.23058 | 8123 ft | 245 kts | 162° |
| 2026-05-08 21:10 | 52.28275 | -0.22434 | 8125 ft | 246 kts | 169° |
| 2026-05-08 21:10 | 52.26600 | -0.21963 | 8123 ft | 246 kts | 169° |
| 2026-05-08 21:10 | 52.24913 | -0.21505 | 8124 ft | 246 kts | 169° |
| 2026-05-08 21:11 | 52.23211 | -0.21034 | 8121 ft | 246 kts | 169° |
| 2026-05-08 21:11 | 52.21529 | -0.20560 | 8122 ft | 246 kts | 169° |
| 2026-05-08 21:11 | 52.19849 | -0.20128 | 8120 ft | 247 kts | 173° |
| 2026-05-08 21:11 | 52.18122 | -0.19941 | 7898 ft | 251 kts | 178° |
| 2026-05-08 21:12 | 52.16380 | -0.19898 | 7489 ft | 253 kts | 179° |
| 2026-05-08 21:12 | 52.14638 | -0.19875 | 7224 ft | 249 kts | 179° |
| 2026-05-08 21:12 | 52.12888 | -0.19851 | 6830 ft | 251 kts | 179° |
| 2026-05-08 21:12 | 52.11174 | -0.19824 | 6568 ft | 246 kts | 178° |
| 2026-05-08 21:13 | 52.09501 | -0.19346 | 6278 ft | 242 kts | 156° |
| 2026-05-08 21:13 | 52.08026 | -0.18114 | 6004 ft | 238 kts | 150° |
| 2026-05-08 21:13 | 52.06586 | -0.16768 | 5614 ft | 240 kts | 149° |
| 2026-05-08 21:13 | 52.05146 | -0.15436 | 5288 ft | 239 kts | 150° |
| 2026-05-08 21:14 | 52.03684 | -0.14115 | 5024 ft | 235 kts | 150° |
| 2026-05-08 21:14 | 52.02295 | -0.12880 | 4978 ft | 220 kts | 150° |
| 2026-05-08 21:14 | 52.00994 | -0.11739 | 4969 ft | 206 kts | 153° |
| 2026-05-08 21:14 | 51.99704 | -0.10907 | 4879 ft | 198 kts | 161° |
| 2026-05-08 21:15 | 51.98358 | -0.10279 | 4554 ft | 201 kts | 163° |
| 2026-05-08 21:15 | 51.97018 | -0.09688 | 4253 ft | 202 kts | 163° |
| 2026-05-08 21:15 | 51.95667 | -0.09100 | 3963 ft | 202 kts | 163° |
| 2026-05-08 21:15 | 51.94299 | -0.08525 | 3668 ft | 201 kts | 171° |
| 2026-05-08 21:16 | 51.92920 | -0.08858 | 3243 ft | 209 kts | 208° |
| 2026-05-08 21:16 | 51.91924 | -0.10491 | 2995 ft | 206 kts | 244° |
| 2026-05-08 21:16 | 51.91495 | -0.12615 | 3022 ft | 187 kts | 257° |
| 2026-05-08 21:16 | 51.91266 | -0.14533 | 3048 ft | 164 kts | 258° |
| 2026-05-08 21:17 | 51.91027 | -0.16276 | 2948 ft | 154 kts | 255° |
| 2026-05-08 21:17 | 51.90759 | -0.17927 | 2755 ft | 147 kts | 253° |
| 2026-05-08 21:17 | 51.90497 | -0.19444 | 2531 ft | 136 kts | 252° |
| 2026-05-08 21:17 | 51.90239 | -0.20906 | 2340 ft | 134 kts | 251° |
| 2026-05-08 21:18 | 51.89982 | -0.22359 | 2160 ft | 134 kts | 252° |
| 2026-05-08 21:18 | 51.89728 | -0.23809 | 1982 ft | 134 kts | 251° |
| 2026-05-08 21:18 | 51.89476 | -0.25259 | 1809 ft | 133 kts | 252° |
| 2026-05-08 21:18 | 51.89228 | -0.26684 | 1635 ft | 132 kts | 252° |
| 2026-05-08 21:19 | 51.88979 | -0.28112 | 1458 ft | 132 kts | 252° |
| 2026-05-08 21:19 | 51.88723 | -0.29563 | 1292 ft | 141 kts | 252° |
| 2026-05-08 21:19 | 51.88469 | -0.31073 | 1156 ft | 136 kts | 253° |
| 2026-05-08 21:19 | 51.88229 | -0.32493 | 921 ft | 129 kts | 253° |
| 2026-05-08 21:20 | 51.87979 | -0.33874 | 728 ft | 127 kts | 253° |
| 2026-05-08 21:20 | 51.87738 | -0.35247 | 583 ft | 126 kts | 253° |
| 2026-05-08 21:20 | 51.87521 | -0.36512 | 537 ft | 90 kts | 254° |
| 2026-05-08 21:20 | 51.87415 | -0.37121 | 540 ft | 43 kts | 255° |
| 2026-05-08 21:21 | 51.87343 | -0.37530 | 538 ft | 29 kts | 253° |
| 2026-05-08 21:21 | 51.87367 | -0.37694 | 536 ft | 13 kts | 351° |
| 2026-05-08 21:21 | 51.87442 | -0.37617 | 537 ft | 13 kts | 44° |
| 2026-05-08 21:21 | 51.87505 | -0.37511 | 539 ft | 13 kts | 45° |
| 2026-05-08 21:22 | 51.87592 | -0.37454 | 536 ft | 15 kts | 358° |
| 2026-05-08 21:22 | 51.87693 | -0.37544 | 532 ft | 18 kts | 304° |
| 2026-05-08 21:22 | 51.87751 | -0.37738 | 531 ft | 18 kts | 296° |
| 2026-05-08 21:22 | 51.87790 | -0.37876 | 532 ft | 6 kts | 296° |
| 2026-05-08 21:23 | 51.87811 | -0.37935 | 533 ft | 6 kts | 306° |
| 2026-05-08 21:23 | 51.87832 | -0.37937 | 534 ft | 3 kts | 47° |
| 2026-05-08 21:23 | 51.87850 | -0.37905 | 535 ft | 3 kts | 46° |
| 2026-05-08 21:23 | 51.87861 | -0.37887 | 535 ft | 0 kts | 46° |